sensor_id;sensor_type;location;lat;lon;timestamp;P1;durP1;ratioP1;P2;durP2;ratioP2
59169;SDS011;52474;52.236;5.114;2023-08-31T00:02:12;7.70;;;6.13;;
59169;SDS011;52474;52.236;5.114;2023-08-31T00:04:38;7.82;;;6.15;;
59169;SDS011;52474;52.236;5.114;2023-08-31T00:07:04;8.23;;;5.88;;
59169;SDS011;52474;52.236;5.114;2023-08-31T00:09:30;7.50;;;5.25;;
59169;SDS011;52474;52.236;5.114;2023-08-31T00:11:55;8.13;;;5.00;;
59169;SDS011;52474;52.236;5.114;2023-08-31T00:14:24;6.43;;;4.55;;
59169;SDS011;52474;52.236;5.114;2023-08-31T00:16:50;5.43;;;4.88;;
59169;SDS011;52474;52.236;5.114;2023-08-31T00:19:16;7.72;;;4.57;;
59169;SDS011;52474;52.236;5.114;2023-08-31T00:21:42;7.30;;;4.43;;
59169;SDS011;52474;52.236;5.114;2023-08-31T00:24:08;6.80;;;4.00;;
59169;SDS011;52474;52.236;5.114;2023-08-31T00:26:38;4.65;;;3.72;;
59169;SDS011;52474;52.236;5.114;2023-08-31T00:29:06;6.00;;;3.30;;
59169;SDS011;52474;52.236;5.114;2023-08-31T00:31:34;7.32;;;3.60;;
59169;SDS011;52474;52.236;5.114;2023-08-31T00:34:00;6.65;;;3.47;;
59169;SDS011;52474;52.236;5.114;2023-08-31T00:36:29;6.22;;;3.83;;
59169;SDS011;52474;52.236;5.114;2023-08-31T00:38:54;5.05;;;3.67;;
59169;SDS011;52474;52.236;5.114;2023-08-31T00:41:21;5.28;;;3.70;;
59169;SDS011;52474;52.236;5.114;2023-08-31T00:43:47;5.90;;;3.63;;
59169;SDS011;52474;52.236;5.114;2023-08-31T00:46:13;5.63;;;4.13;;
59169;SDS011;52474;52.236;5.114;2023-08-31T00:48:40;6.25;;;4.00;;
59169;SDS011;52474;52.236;5.114;2023-08-31T00:51:06;7.68;;;3.75;;
59169;SDS011;52474;52.236;5.114;2023-08-31T00:53:32;8.13;;;4.10;;
59169;SDS011;52474;52.236;5.114;2023-08-31T00:55:59;6.00;;;3.83;;
59169;SDS011;52474;52.236;5.114;2023-08-31T00:58:25;7.43;;;4.25;;
59169;SDS011;52474;52.236;5.114;2023-08-31T01:01:03;7.05;;;3.67;;
59169;SDS011;52474;52.236;5.114;2023-08-31T01:03:43;7.47;;;3.80;;
59169;SDS011;52474;52.236;5.114;2023-08-31T01:09:30;8.07;;;4.18;;
59169;SDS011;52474;52.236;5.114;2023-08-31T01:12:16;6.15;;;3.85;;
59169;SDS011;52474;52.236;5.114;2023-08-31T01:14:53;6.95;;;3.70;;
59169;SDS011;52474;52.236;5.114;2023-08-31T01:17:24;6.97;;;4.07;;
59169;SDS011;52474;52.236;5.114;2023-08-31T01:19:54;7.43;;;5.90;;
59169;SDS011;52474;52.236;5.114;2023-08-31T01:25:13;12.55;;;8.32;;
59169;SDS011;52474;52.236;5.114;2023-08-31T01:27:39;11.48;;;7.88;;
59169;SDS011;52474;52.236;5.114;2023-08-31T01:30:06;9.07;;;7.85;;
59169;SDS011;52474;52.236;5.114;2023-08-31T01:32:32;9.70;;;6.93;;
59169;SDS011;52474;52.236;5.114;2023-08-31T01:34:59;8.23;;;7.03;;
59169;SDS011;52474;52.236;5.114;2023-08-31T01:37:29;10.77;;;6.55;;
59169;SDS011;52474;52.236;5.114;2023-08-31T01:40:08;12.18;;;7.45;;
59169;SDS011;52474;52.236;5.114;2023-08-31T01:42:57;11.15;;;8.27;;
59169;SDS011;52474;52.236;5.114;2023-08-31T01:45:25;13.75;;;9.60;;
59169;SDS011;52474;52.236;5.114;2023-08-31T01:47:51;16.08;;;11.30;;
59169;SDS011;52474;52.236;5.114;2023-08-31T01:50:17;13.30;;;10.02;;
59169;SDS011;52474;52.236;5.114;2023-08-31T01:52:43;13.27;;;9.10;;
59169;SDS011;52474;52.236;5.114;2023-08-31T01:55:08;9.27;;;7.70;;
59169;SDS011;52474;52.236;5.114;2023-08-31T01:57:34;11.13;;;6.32;;
59169;SDS011;52474;52.236;5.114;2023-08-31T02:00:19;6.75;;;4.85;;
59169;SDS011;52474;52.236;5.114;2023-08-31T02:02:46;6.82;;;4.10;;
59169;SDS011;52474;52.236;5.114;2023-08-31T02:05:12;4.90;;;4.07;;
59169;SDS011;52474;52.236;5.114;2023-08-31T02:07:38;7.30;;;5.00;;
59169;SDS011;52474;52.236;5.114;2023-08-31T02:10:05;6.93;;;4.00;;
59169;SDS011;52474;52.236;5.114;2023-08-31T02:12:32;8.48;;;3.70;;
59169;SDS011;52474;52.236;5.114;2023-08-31T02:14:58;7.65;;;3.42;;
59169;SDS011;52474;52.236;5.114;2023-08-31T02:17:24;6.55;;;3.92;;
59169;SDS011;52474;52.236;5.114;2023-08-31T02:19:50;5.85;;;3.60;;
59169;SDS011;52474;52.236;5.114;2023-08-31T02:22:16;6.28;;;3.53;;
59169;SDS011;52474;52.236;5.114;2023-08-31T02:24:42;7.18;;;3.80;;
59169;SDS011;52474;52.236;5.114;2023-08-31T02:27:07;7.40;;;3.35;;
59169;SDS011;52474;52.236;5.114;2023-08-31T02:29:33;4.97;;;3.15;;
59169;SDS011;52474;52.236;5.114;2023-08-31T02:31:59;7.55;;;3.30;;
59169;SDS011;52474;52.236;5.114;2023-08-31T02:34:25;5.85;;;2.80;;
59169;SDS011;52474;52.236;5.114;2023-08-31T02:36:50;4.55;;;2.45;;
59169;SDS011;52474;52.236;5.114;2023-08-31T02:39:16;5.10;;;3.00;;
59169;SDS011;52474;52.236;5.114;2023-08-31T02:41:42;6.10;;;2.28;;
59169;SDS011;52474;52.236;5.114;2023-08-31T02:44:07;7.35;;;3.03;;
59169;SDS011;52474;52.236;5.114;2023-08-31T02:46:33;4.38;;;2.30;;
59169;SDS011;52474;52.236;5.114;2023-08-31T02:48:59;5.28;;;2.70;;
59169;SDS011;52474;52.236;5.114;2023-08-31T02:51:24;5.85;;;2.60;;
59169;SDS011;52474;52.236;5.114;2023-08-31T02:53:50;7.32;;;2.85;;
59169;SDS011;52474;52.236;5.114;2023-08-31T02:56:15;3.25;;;2.72;;
59169;SDS011;52474;52.236;5.114;2023-08-31T02:58:41;5.15;;;2.28;;
59169;SDS011;52474;52.236;5.114;2023-08-31T03:01:08;8.32;;;2.35;;
59169;SDS011;52474;52.236;5.114;2023-08-31T03:03:40;4.82;;;2.20;;
59169;SDS011;52474;52.236;5.114;2023-08-31T03:06:07;4.05;;;2.20;;
59169;SDS011;52474;52.236;5.114;2023-08-31T03:08:35;4.55;;;1.98;;
59169;SDS011;52474;52.236;5.114;2023-08-31T03:11:02;4.18;;;2.08;;
59169;SDS011;52474;52.236;5.114;2023-08-31T03:13:29;3.92;;;2.00;;
59169;SDS011;52474;52.236;5.114;2023-08-31T03:15:55;3.13;;;1.92;;
59169;SDS011;52474;52.236;5.114;2023-08-31T03:18:23;4.15;;;1.70;;
59169;SDS011;52474;52.236;5.114;2023-08-31T03:20:49;4.35;;;1.90;;
59169;SDS011;52474;52.236;5.114;2023-08-31T03:23:15;4.82;;;1.98;;
59169;SDS011;52474;52.236;5.114;2023-08-31T03:25:41;3.85;;;2.00;;
59169;SDS011;52474;52.236;5.114;2023-08-31T03:28:07;6.28;;;2.28;;
59169;SDS011;52474;52.236;5.114;2023-08-31T03:30:34;4.35;;;2.05;;
59169;SDS011;52474;52.236;5.114;2023-08-31T03:32:59;4.20;;;2.10;;
59169;SDS011;52474;52.236;5.114;2023-08-31T03:35:25;7.07;;;1.88;;
59169;SDS011;52474;52.236;5.114;2023-08-31T03:37:55;3.53;;;2.15;;
59169;SDS011;52474;52.236;5.114;2023-08-31T03:40:22;4.78;;;2.20;;
59169;SDS011;52474;52.236;5.114;2023-08-31T03:42:50;5.72;;;2.20;;
59169;SDS011;52474;52.236;5.114;2023-08-31T03:45:16;4.70;;;2.03;;
59169;SDS011;52474;52.236;5.114;2023-08-31T03:47:42;3.30;;;2.00;;
59169;SDS011;52474;52.236;5.114;2023-08-31T03:50:07;3.80;;;2.17;;
59169;SDS011;52474;52.236;5.114;2023-08-31T03:52:34;4.82;;;2.33;;
59169;SDS011;52474;52.236;5.114;2023-08-31T03:54:59;4.97;;;2.63;;
59169;SDS011;52474;52.236;5.114;2023-08-31T03:57:25;8.68;;;3.03;;
59169;SDS011;52474;52.236;5.114;2023-08-31T04:02:21;4.32;;;2.45;;
59169;SDS011;52474;52.236;5.114;2023-08-31T04:04:46;6.10;;;2.75;;
59169;SDS011;52474;52.236;5.114;2023-08-31T04:07:13;5.82;;;2.78;;
59169;SDS011;52474;52.236;5.114;2023-08-31T04:09:38;7.80;;;3.25;;
59169;SDS011;52474;52.236;5.114;2023-08-31T04:12:04;5.47;;;3.38;;
59169;SDS011;52474;52.236;5.114;2023-08-31T04:14:31;9.70;;;3.92;;
59169;SDS011;52474;52.236;5.114;2023-08-31T04:16:57;7.15;;;3.20;;
59169;SDS011;52474;52.236;5.114;2023-08-31T04:19:22;6.97;;;3.33;;
59169;SDS011;52474;52.236;5.114;2023-08-31T04:21:48;7.22;;;3.28;;
59169;SDS011;52474;52.236;5.114;2023-08-31T04:24:14;6.82;;;3.08;;
59169;SDS011;52474;52.236;5.114;2023-08-31T04:26:40;6.45;;;3.38;;
59169;SDS011;52474;52.236;5.114;2023-08-31T04:29:06;8.55;;;2.88;;
59169;SDS011;52474;52.236;5.114;2023-08-31T04:31:32;4.68;;;2.88;;
59169;SDS011;52474;52.236;5.114;2023-08-31T04:33:58;6.10;;;2.60;;
59169;SDS011;52474;52.236;5.114;2023-08-31T04:36:24;5.45;;;2.55;;
59169;SDS011;52474;52.236;5.114;2023-08-31T04:38:51;6.78;;;2.08;;
59169;SDS011;52474;52.236;5.114;2023-08-31T04:41:17;6.68;;;2.10;;
59169;SDS011;52474;52.236;5.114;2023-08-31T04:43:43;6.45;;;1.67;;
59169;SDS011;52474;52.236;5.114;2023-08-31T04:46:09;7.05;;;1.77;;
59169;SDS011;52474;52.236;5.114;2023-08-31T04:48:35;5.22;;;2.13;;
59169;SDS011;52474;52.236;5.114;2023-08-31T04:51:01;6.93;;;2.17;;
59169;SDS011;52474;52.236;5.114;2023-08-31T04:53:29;9.55;;;2.42;;
59169;SDS011;52474;52.236;5.114;2023-08-31T04:55:55;7.97;;;2.20;;
59169;SDS011;52474;52.236;5.114;2023-08-31T04:58:21;7.00;;;2.80;;
59169;SDS011;52474;52.236;5.114;2023-08-31T05:00:46;7.07;;;2.17;;
59169;SDS011;52474;52.236;5.114;2023-08-31T05:03:13;7.57;;;1.98;;
59169;SDS011;52474;52.236;5.114;2023-08-31T05:05:39;7.47;;;2.22;;
59169;SDS011;52474;52.236;5.114;2023-08-31T05:08:04;5.85;;;1.70;;
59169;SDS011;52474;52.236;5.114;2023-08-31T05:10:31;7.15;;;2.10;;
59169;SDS011;52474;52.236;5.114;2023-08-31T05:12:56;6.30;;;2.08;;
59169;SDS011;52474;52.236;5.114;2023-08-31T05:15:22;6.57;;;2.13;;
59169;SDS011;52474;52.236;5.114;2023-08-31T05:17:48;6.47;;;2.33;;
59169;SDS011;52474;52.236;5.114;2023-08-31T05:20:14;9.07;;;2.40;;
59169;SDS011;52474;52.236;5.114;2023-08-31T05:22:39;6.85;;;2.58;;
59169;SDS011;52474;52.236;5.114;2023-08-31T05:25:05;10.45;;;2.80;;
59169;SDS011;52474;52.236;5.114;2023-08-31T05:27:31;8.18;;;2.33;;
59169;SDS011;52474;52.236;5.114;2023-08-31T05:29:56;10.05;;;2.63;;
59169;SDS011;52474;52.236;5.114;2023-08-31T05:32:22;10.57;;;2.60;;
59169;SDS011;52474;52.236;5.114;2023-08-31T05:34:48;11.98;;;2.90;;
59169;SDS011;52474;52.236;5.114;2023-08-31T05:37:14;8.40;;;2.10;;
59169;SDS011;52474;52.236;5.114;2023-08-31T05:39:39;7.55;;;1.95;;
59169;SDS011;52474;52.236;5.114;2023-08-31T05:42:05;6.72;;;2.10;;
59169;SDS011;52474;52.236;5.114;2023-08-31T05:44:31;7.60;;;2.03;;
59169;SDS011;52474;52.236;5.114;2023-08-31T05:46:56;10.50;;;2.83;;
59169;SDS011;52474;52.236;5.114;2023-08-31T05:49:22;6.00;;;2.17;;
59169;SDS011;52474;52.236;5.114;2023-08-31T05:51:48;5.85;;;2.28;;
59169;SDS011;52474;52.236;5.114;2023-08-31T05:54:14;8.02;;;2.78;;
59169;SDS011;52474;52.236;5.114;2023-08-31T05:56:40;11.65;;;2.50;;
59169;SDS011;52474;52.236;5.114;2023-08-31T05:59:06;6.38;;;2.58;;
59169;SDS011;52474;52.236;5.114;2023-08-31T06:01:32;8.65;;;2.80;;
59169;SDS011;52474;52.236;5.114;2023-08-31T06:04:01;9.10;;;1.85;;
59169;SDS011;52474;52.236;5.114;2023-08-31T06:06:28;5.95;;;2.10;;
59169;SDS011;52474;52.236;5.114;2023-08-31T06:08:54;8.98;;;2.40;;
59169;SDS011;52474;52.236;5.114;2023-08-31T06:11:20;6.05;;;1.60;;
59169;SDS011;52474;52.236;5.114;2023-08-31T06:13:46;5.82;;;1.50;;
59169;SDS011;52474;52.236;5.114;2023-08-31T06:16:12;4.65;;;1.50;;
59169;SDS011;52474;52.236;5.114;2023-08-31T06:18:37;6.30;;;1.58;;
59169;SDS011;52474;52.236;5.114;2023-08-31T06:21:03;10.10;;;1.88;;
59169;SDS011;52474;52.236;5.114;2023-08-31T06:23:29;10.48;;;1.90;;
59169;SDS011;52474;52.236;5.114;2023-08-31T06:25:54;3.53;;;1.40;;
59169;SDS011;52474;52.236;5.114;2023-08-31T06:28:20;6.70;;;1.85;;
59169;SDS011;52474;52.236;5.114;2023-08-31T06:30:45;7.35;;;1.95;;
59169;SDS011;52474;52.236;5.114;2023-08-31T06:33:15;7.55;;;1.40;;
59169;SDS011;52474;52.236;5.114;2023-08-31T06:35:41;7.03;;;1.52;;
59169;SDS011;52474;52.236;5.114;2023-08-31T06:38:06;8.23;;;1.80;;
59169;SDS011;52474;52.236;5.114;2023-08-31T06:40:32;6.47;;;2.05;;
59169;SDS011;52474;52.236;5.114;2023-08-31T06:42:58;6.15;;;1.92;;
59169;SDS011;52474;52.236;5.114;2023-08-31T06:45:24;6.20;;;2.15;;
59169;SDS011;52474;52.236;5.114;2023-08-31T06:47:50;9.00;;;1.83;;
59169;SDS011;52474;52.236;5.114;2023-08-31T06:50:16;5.38;;;1.60;;
59169;SDS011;52474;52.236;5.114;2023-08-31T06:52:42;6.22;;;1.67;;
59169;SDS011;52474;52.236;5.114;2023-08-31T06:55:09;5.47;;;1.73;;
59169;SDS011;52474;52.236;5.114;2023-08-31T06:57:36;7.07;;;1.67;;
59169;SDS011;52474;52.236;5.114;2023-08-31T07:00:03;4.57;;;1.70;;
59169;SDS011;52474;52.236;5.114;2023-08-31T07:02:29;11.43;;;2.90;;
59169;SDS011;52474;52.236;5.114;2023-08-31T07:04:55;9.32;;;2.95;;
59169;SDS011;52474;52.236;5.114;2023-08-31T07:07:20;6.57;;;2.55;;
59169;SDS011;52474;52.236;5.114;2023-08-31T07:09:46;11.90;;;2.92;;
59169;SDS011;52474;52.236;5.114;2023-08-31T07:12:15;11.13;;;4.57;;
59169;SDS011;52474;52.236;5.114;2023-08-31T07:14:41;7.30;;;1.83;;
59169;SDS011;52474;52.236;5.114;2023-08-31T07:17:07;4.93;;;1.55;;
59169;SDS011;52474;52.236;5.114;2023-08-31T07:19:35;7.88;;;1.88;;
59169;SDS011;52474;52.236;5.114;2023-08-31T07:22:02;10.00;;;1.85;;
59169;SDS011;52474;52.236;5.114;2023-08-31T07:24:29;6.72;;;1.80;;
59169;SDS011;52474;52.236;5.114;2023-08-31T07:26:55;9.10;;;1.92;;
59169;SDS011;52474;52.236;5.114;2023-08-31T07:29:21;6.18;;;1.80;;
59169;SDS011;52474;52.236;5.114;2023-08-31T07:31:47;8.15;;;1.80;;
59169;SDS011;52474;52.236;5.114;2023-08-31T07:34:13;8.70;;;2.22;;
59169;SDS011;52474;52.236;5.114;2023-08-31T07:36:39;16.45;;;2.58;;
59169;SDS011;52474;52.236;5.114;2023-08-31T07:39:05;6.45;;;1.92;;
59169;SDS011;52474;52.236;5.114;2023-08-31T07:41:31;7.75;;;1.88;;
59169;SDS011;52474;52.236;5.114;2023-08-31T07:43:56;11.57;;;2.40;;
59169;SDS011;52474;52.236;5.114;2023-08-31T07:46:22;9.30;;;2.20;;
59169;SDS011;52474;52.236;5.114;2023-08-31T07:48:48;10.52;;;2.10;;
59169;SDS011;52474;52.236;5.114;2023-08-31T07:51:15;9.63;;;2.38;;
59169;SDS011;52474;52.236;5.114;2023-08-31T07:53:41;10.82;;;2.30;;
59169;SDS011;52474;52.236;5.114;2023-08-31T07:56:06;9.52;;;2.50;;
59169;SDS011;52474;52.236;5.114;2023-08-31T07:58:32;9.98;;;2.08;;
59169;SDS011;52474;52.236;5.114;2023-08-31T08:00:58;9.50;;;2.47;;
59169;SDS011;52474;52.236;5.114;2023-08-31T08:03:24;10.60;;;2.42;;
59169;SDS011;52474;52.236;5.114;2023-08-31T08:05:49;7.75;;;1.85;;
59169;SDS011;52474;52.236;5.114;2023-08-31T08:08:15;8.45;;;2.70;;
59169;SDS011;52474;52.236;5.114;2023-08-31T08:10:41;8.73;;;3.13;;
59169;SDS011;52474;52.236;5.114;2023-08-31T08:13:08;7.82;;;2.30;;
59169;SDS011;52474;52.236;5.114;2023-08-31T08:15:34;9.25;;;2.45;;
59169;SDS011;52474;52.236;5.114;2023-08-31T08:18:00;11.40;;;2.60;;
59169;SDS011;52474;52.236;5.114;2023-08-31T08:20:26;9.20;;;3.00;;
59169;SDS011;52474;52.236;5.114;2023-08-31T08:22:53;7.55;;;2.75;;
59169;SDS011;52474;52.236;5.114;2023-08-31T08:25:19;14.15;;;3.75;;
59169;SDS011;52474;52.236;5.114;2023-08-31T08:27:45;263.60;;;18.08;;
59169;SDS011;52474;52.236;5.114;2023-08-31T08:30:11;483.48;;;42.65;;
59169;SDS011;52474;52.236;5.114;2023-08-31T08:32:36;969.08;;;77.53;;
59169;SDS011;52474;52.236;5.114;2023-08-31T08:35:02;52.88;;;6.75;;
59169;SDS011;52474;52.236;5.114;2023-08-31T08:37:30;8.27;;;3.63;;
59169;SDS011;52474;52.236;5.114;2023-08-31T08:39:58;12.48;;;3.60;;
59169;SDS011;52474;52.236;5.114;2023-08-31T08:42:24;8.98;;;2.65;;
59169;SDS011;52474;52.236;5.114;2023-08-31T08:44:51;10.95;;;2.45;;
59169;SDS011;52474;52.236;5.114;2023-08-31T08:47:19;6.38;;;1.23;;
59169;SDS011;52474;52.236;5.114;2023-08-31T08:49:45;5.18;;;1.58;;
59169;SDS011;52474;52.236;5.114;2023-08-31T08:52:12;4.63;;;0.98;;
59169;SDS011;52474;52.236;5.114;2023-08-31T08:54:40;6.07;;;1.20;;
59169;SDS011;52474;52.236;5.114;2023-08-31T08:57:05;3.42;;;1.70;;
59169;SDS011;52474;52.236;5.114;2023-08-31T08:59:31;3.78;;;1.05;;
59169;SDS011;52474;52.236;5.114;2023-08-31T09:01:57;5.35;;;1.20;;
59169;SDS011;52474;52.236;5.114;2023-08-31T09:04:23;4.38;;;1.40;;
59169;SDS011;52474;52.236;5.114;2023-08-31T09:06:52;4.75;;;1.40;;
59169;SDS011;52474;52.236;5.114;2023-08-31T09:09:17;436.17;;;35.58;;
59169;SDS011;52474;52.236;5.114;2023-08-31T09:11:44;1497.30;;;88.75;;
59169;SDS011;52474;52.236;5.114;2023-08-31T09:14:18;909.58;;;61.92;;
59169;SDS011;52474;52.236;5.114;2023-08-31T09:16:45;1566.10;;;109.68;;
59169;SDS011;52474;52.236;5.114;2023-08-31T09:19:18;576.72;;;27.05;;
59169;SDS011;52474;52.236;5.114;2023-08-31T09:21:45;635.33;;;37.63;;
59169;SDS011;52474;52.236;5.114;2023-08-31T09:24:12;693.70;;;44.45;;
59169;SDS011;52474;52.236;5.114;2023-08-31T09:26:39;1894.43;;;239.60;;
59169;SDS011;52474;52.236;5.114;2023-08-31T09:29:05;486.35;;;27.10;;
59169;SDS011;52474;52.236;5.114;2023-08-31T09:31:32;56.30;;;4.10;;
59169;SDS011;52474;52.236;5.114;2023-08-31T09:33:58;140.52;;;8.85;;
59169;SDS011;52474;52.236;5.114;2023-08-31T09:36:23;26.65;;;2.58;;
59169;SDS011;52474;52.236;5.114;2023-08-31T09:38:49;9.27;;;1.67;;
59169;SDS011;52474;52.236;5.114;2023-08-31T09:41:14;7.63;;;1.65;;
59169;SDS011;52474;52.236;5.114;2023-08-31T09:43:41;7.25;;;1.50;;
59169;SDS011;52474;52.236;5.114;2023-08-31T09:46:07;7.55;;;1.73;;
59169;SDS011;52474;52.236;5.114;2023-08-31T09:48:35;28.75;;;3.08;;
59169;SDS011;52474;52.236;5.114;2023-08-31T09:51:03;7.28;;;1.80;;
59169;SDS011;52474;52.236;5.114;2023-08-31T09:53:30;5.63;;;1.60;;
59169;SDS011;52474;52.236;5.114;2023-08-31T09:55:57;10.18;;;1.77;;
59169;SDS011;52474;52.236;5.114;2023-08-31T09:58:23;6.60;;;1.88;;
59169;SDS011;52474;52.236;5.114;2023-08-31T10:00:50;7.10;;;1.88;;
59169;SDS011;52474;52.236;5.114;2023-08-31T10:03:17;9.13;;;1.70;;
59169;SDS011;52474;52.236;5.114;2023-08-31T10:05:43;6.32;;;1.27;;
59169;SDS011;52474;52.236;5.114;2023-08-31T10:08:10;4.45;;;1.10;;
59169;SDS011;52474;52.236;5.114;2023-08-31T10:10:37;6.82;;;1.40;;
59169;SDS011;52474;52.236;5.114;2023-08-31T10:13:04;5.55;;;1.33;;
59169;SDS011;52474;52.236;5.114;2023-08-31T10:15:34;5.00;;;1.23;;
59169;SDS011;52474;52.236;5.114;2023-08-31T10:18:01;7.55;;;1.27;;
59169;SDS011;52474;52.236;5.114;2023-08-31T10:20:30;5.27;;;0.93;;
59169;SDS011;52474;52.236;5.114;2023-08-31T10:23:03;5.63;;;1.13;;
59169;SDS011;52474;52.236;5.114;2023-08-31T10:26:15;5.30;;;1.10;;
59169;SDS011;52474;52.236;5.114;2023-08-31T10:28:19;4.10;;;1.02;;
59169;SDS011;52474;52.236;5.114;2023-08-31T10:33:39;3.90;;;1.00;;
59169;SDS011;52474;52.236;5.114;2023-08-31T10:36:11;3.17;;;0.90;;
59169;SDS011;52474;52.236;5.114;2023-08-31T10:38:41;2.85;;;0.70;;
59169;SDS011;52474;52.236;5.114;2023-08-31T10:43:48;3.58;;;1.00;;
59169;SDS011;52474;52.236;5.114;2023-08-31T10:46:51;3.08;;;0.90;;
59169;SDS011;52474;52.236;5.114;2023-08-31T10:51:37;1.88;;;0.90;;
59169;SDS011;52474;52.236;5.114;2023-08-31T10:56:53;4.95;;;1.27;;
59169;SDS011;52474;52.236;5.114;2023-08-31T10:59:20;3.38;;;1.00;;
59169;SDS011;52474;52.236;5.114;2023-08-31T11:01:53;4.05;;;1.15;;
59169;SDS011;52474;52.236;5.114;2023-08-31T11:04:21;5.30;;;1.45;;
59169;SDS011;52474;52.236;5.114;2023-08-31T11:09:40;7.63;;;1.23;;
59169;SDS011;52474;52.236;5.114;2023-08-31T11:12:06;4.60;;;1.35;;
59169;SDS011;52474;52.236;5.114;2023-08-31T11:14:32;7.05;;;1.48;;
59169;SDS011;52474;52.236;5.114;2023-08-31T11:16:58;5.43;;;1.20;;
59169;SDS011;52474;52.236;5.114;2023-08-31T11:19:30;4.38;;;1.67;;
59169;SDS011;52474;52.236;5.114;2023-08-31T11:21:56;7.30;;;1.58;;
59169;SDS011;52474;52.236;5.114;2023-08-31T11:24:22;6.22;;;1.48;;
59169;SDS011;52474;52.236;5.114;2023-08-31T11:26:51;7.75;;;1.35;;
59169;SDS011;52474;52.236;5.114;2023-08-31T11:29:18;3.65;;;0.98;;
59169;SDS011;52474;52.236;5.114;2023-08-31T11:31:44;3.60;;;1.50;;
59169;SDS011;52474;52.236;5.114;2023-08-31T11:34:14;2.47;;;0.98;;
59169;SDS011;52474;52.236;5.114;2023-08-31T11:36:41;5.43;;;1.30;;
59169;SDS011;52474;52.236;5.114;2023-08-31T11:39:08;4.20;;;1.20;;
59169;SDS011;52474;52.236;5.114;2023-08-31T11:41:35;3.92;;;1.10;;
59169;SDS011;52474;52.236;5.114;2023-08-31T11:44:05;3.88;;;1.13;;
59169;SDS011;52474;52.236;5.114;2023-08-31T11:46:35;2.55;;;1.00;;
59169;SDS011;52474;52.236;5.114;2023-08-31T11:49:02;3.38;;;1.67;;
59169;SDS011;52474;52.236;5.114;2023-08-31T11:51:32;3.13;;;1.23;;
59169;SDS011;52474;52.236;5.114;2023-08-31T11:54:02;3.88;;;1.10;;
59169;SDS011;52474;52.236;5.114;2023-08-31T11:56:37;2.20;;;0.80;;
59169;SDS011;52474;52.236;5.114;2023-08-31T11:59:15;2.28;;;1.13;;
59169;SDS011;52474;52.236;5.114;2023-08-31T12:04:15;3.38;;;0.95;;
59169;SDS011;52474;52.236;5.114;2023-08-31T12:06:42;2.90;;;1.13;;
59169;SDS011;52474;52.236;5.114;2023-08-31T12:09:13;3.97;;;1.40;;
59169;SDS011;52474;52.236;5.114;2023-08-31T12:11:39;3.08;;;0.85;;
59169;SDS011;52474;52.236;5.114;2023-08-31T12:14:17;5.13;;;1.23;;
59169;SDS011;52474;52.236;5.114;2023-08-31T12:16:45;3.35;;;1.05;;
59169;SDS011;52474;52.236;5.114;2023-08-31T12:19:11;2.25;;;0.93;;
59169;SDS011;52474;52.236;5.114;2023-08-31T12:21:36;3.47;;;0.90;;
59169;SDS011;52474;52.236;5.114;2023-08-31T12:24:02;3.13;;;0.93;;
59169;SDS011;52474;52.236;5.114;2023-08-31T12:26:31;2.47;;;0.83;;
59169;SDS011;52474;52.236;5.114;2023-08-31T12:28:57;2.35;;;0.98;;
59169;SDS011;52474;52.236;5.114;2023-08-31T12:31:22;3.47;;;1.13;;
59169;SDS011;52474;52.236;5.114;2023-08-31T12:33:49;3.88;;;1.20;;
59169;SDS011;52474;52.236;5.114;2023-08-31T12:36:14;3.47;;;1.00;;
59169;SDS011;52474;52.236;5.114;2023-08-31T12:38:40;5.70;;;1.10;;
59169;SDS011;52474;52.236;5.114;2023-08-31T12:41:06;3.13;;;1.10;;
59169;SDS011;52474;52.236;5.114;2023-08-31T12:43:32;3.05;;;0.82;;
59169;SDS011;52474;52.236;5.114;2023-08-31T12:45:58;3.75;;;1.10;;
59169;SDS011;52474;52.236;5.114;2023-08-31T12:48:24;3.70;;;1.20;;
59169;SDS011;52474;52.236;5.114;2023-08-31T12:50:49;2.15;;;0.70;;
59169;SDS011;52474;52.236;5.114;2023-08-31T12:53:15;1.98;;;0.90;;
59169;SDS011;52474;52.236;5.114;2023-08-31T12:55:41;2.63;;;0.80;;
59169;SDS011;52474;52.236;5.114;2023-08-31T12:58:07;4.38;;;1.10;;
59169;SDS011;52474;52.236;5.114;2023-08-31T13:00:32;4.43;;;1.00;;
59169;SDS011;52474;52.236;5.114;2023-08-31T13:02:59;3.28;;;1.10;;
59169;SDS011;52474;52.236;5.114;2023-08-31T13:05:26;3.78;;;1.10;;
59169;SDS011;52474;52.236;5.114;2023-08-31T13:07:54;3.92;;;1.27;;
59169;SDS011;52474;52.236;5.114;2023-08-31T13:10:20;5.78;;;0.90;;
59169;SDS011;52474;52.236;5.114;2023-08-31T13:12:46;1.75;;;1.10;;
59169;SDS011;52474;52.236;5.114;2023-08-31T13:15:12;1.88;;;0.90;;
59169;SDS011;52474;52.236;5.114;2023-08-31T13:17:38;3.58;;;1.27;;
59169;SDS011;52474;52.236;5.114;2023-08-31T13:20:06;2.72;;;0.95;;
59169;SDS011;52474;52.236;5.114;2023-08-31T13:22:33;1.92;;;1.10;;
59169;SDS011;52474;52.236;5.114;2023-08-31T13:24:59;1.27;;;0.70;;
59169;SDS011;52474;52.236;5.114;2023-08-31T13:27:25;8.05;;;1.27;;
59169;SDS011;52474;52.236;5.114;2023-08-31T13:29:51;2.63;;;0.93;;
59169;SDS011;52474;52.236;5.114;2023-08-31T13:32:17;3.20;;;1.15;;
59169;SDS011;52474;52.236;5.114;2023-08-31T13:34:43;3.45;;;0.93;;
59169;SDS011;52474;52.236;5.114;2023-08-31T13:37:08;4.05;;;1.20;;
59169;SDS011;52474;52.236;5.114;2023-08-31T13:39:34;4.45;;;1.30;;
59169;SDS011;52474;52.236;5.114;2023-08-31T13:42:05;3.03;;;1.20;;
59169;SDS011;52474;52.236;5.114;2023-08-31T13:44:32;3.42;;;0.98;;
59169;SDS011;52474;52.236;5.114;2023-08-31T13:46:57;4.50;;;1.00;;
59169;SDS011;52474;52.236;5.114;2023-08-31T13:49:23;8.60;;;1.10;;
59169;SDS011;52474;52.236;5.114;2023-08-31T13:51:49;2.55;;;1.00;;
59169;SDS011;52474;52.236;5.114;2023-08-31T13:54:14;3.00;;;1.08;;
59169;SDS011;52474;52.236;5.114;2023-08-31T13:56:40;3.03;;;1.10;;
59169;SDS011;52474;52.236;5.114;2023-08-31T13:59:06;2.35;;;0.88;;
59169;SDS011;52474;52.236;5.114;2023-08-31T14:01:31;2.08;;;0.95;;
59169;SDS011;52474;52.236;5.114;2023-08-31T14:03:57;2.90;;;0.98;;
59169;SDS011;52474;52.236;5.114;2023-08-31T14:06:23;2.72;;;1.10;;
59169;SDS011;52474;52.236;5.114;2023-08-31T14:08:48;3.15;;;0.95;;
59169;SDS011;52474;52.236;5.114;2023-08-31T14:11:14;1.75;;;0.82;;
59169;SDS011;52474;52.236;5.114;2023-08-31T14:13:39;3.40;;;1.15;;
59169;SDS011;52474;52.236;5.114;2023-08-31T14:16:08;5.50;;;1.17;;
59169;SDS011;52474;52.236;5.114;2023-08-31T14:18:33;4.03;;;0.98;;
59169;SDS011;52474;52.236;5.114;2023-08-31T14:20:59;2.28;;;0.90;;
59169;SDS011;52474;52.236;5.114;2023-08-31T14:23:26;2.75;;;1.02;;
59169;SDS011;52474;52.236;5.114;2023-08-31T14:25:52;2.58;;;0.85;;
59169;SDS011;52474;52.236;5.114;2023-08-31T14:28:18;4.93;;;0.90;;
59169;SDS011;52474;52.236;5.114;2023-08-31T14:30:43;2.88;;;1.17;;
59169;SDS011;52474;52.236;5.114;2023-08-31T14:33:09;3.30;;;1.20;;
59169;SDS011;52474;52.236;5.114;2023-08-31T14:35:38;1.67;;;0.98;;
59169;SDS011;52474;52.236;5.114;2023-08-31T14:38:04;3.42;;;1.17;;
59169;SDS011;52474;52.236;5.114;2023-08-31T14:40:30;2.75;;;1.17;;
59169;SDS011;52474;52.236;5.114;2023-08-31T14:42:58;2.50;;;1.10;;
59169;SDS011;52474;52.236;5.114;2023-08-31T14:45:23;3.58;;;1.02;;
59169;SDS011;52474;52.236;5.114;2023-08-31T14:47:49;2.75;;;1.05;;
59169;SDS011;52474;52.236;5.114;2023-08-31T14:50:14;4.60;;;1.20;;
59169;SDS011;52474;52.236;5.114;2023-08-31T14:52:40;1.70;;;1.10;;
59169;SDS011;52474;52.236;5.114;2023-08-31T14:55:06;4.53;;;1.00;;
59169;SDS011;52474;52.236;5.114;2023-08-31T14:57:32;2.35;;;1.00;;
59169;SDS011;52474;52.236;5.114;2023-08-31T14:59:57;2.78;;;0.90;;
59169;SDS011;52474;52.236;5.114;2023-08-31T15:02:24;3.28;;;1.17;;
59169;SDS011;52474;52.236;5.114;2023-08-31T15:04:50;3.03;;;0.88;;
59169;SDS011;52474;52.236;5.114;2023-08-31T15:07:16;3.58;;;1.08;;
59169;SDS011;52474;52.236;5.114;2023-08-31T15:09:43;1.60;;;1.10;;